sensor_id;sensor_type;location;lat;lon;timestamp;temperature;humidity
59975;DHT22;62136;-35.664;-63.766;2023-01-24T00:00:53;31.10;46.50
59975;DHT22;62136;-35.664;-63.766;2023-01-24T00:03:20;31.10;46.60
59975;DHT22;62136;-35.664;-63.766;2023-01-24T00:05:47;31.10;46.50
59975;DHT22;62136;-35.664;-63.766;2023-01-24T00:08:14;31.10;46.70
59975;DHT22;62136;-35.664;-63.766;2023-01-24T00:10:41;31.00;46.70
59975;DHT22;62136;-35.664;-63.766;2023-01-24T00:13:11;31.00;46.80
59975;DHT22;62136;-35.664;-63.766;2023-01-24T00:15:38;31.00;46.70
59975;DHT22;62136;-35.664;-63.766;2023-01-24T00:18:04;31.00;46.70
59975;DHT22;62136;-35.664;-63.766;2023-01-24T00:20:31;31.00;46.90
59975;DHT22;62136;-35.664;-63.766;2023-01-24T00:22:57;31.00;46.80
59975;DHT22;62136;-35.664;-63.766;2023-01-24T00:25:24;31.00;46.90
59975;DHT22;62136;-35.664;-63.766;2023-01-24T00:27:50;31.00;46.90
59975;DHT22;62136;-35.664;-63.766;2023-01-24T00:30:16;30.90;46.90
59975;DHT22;62136;-35.664;-63.766;2023-01-24T00:32:43;30.90;46.90
59975;DHT22;62136;-35.664;-63.766;2023-01-24T00:35:09;30.90;46.90
59975;DHT22;62136;-35.664;-63.766;2023-01-24T00:37:36;30.90;47.00
59975;DHT22;62136;-35.664;-63.766;2023-01-24T00:40:02;30.90;47.00
59975;DHT22;62136;-35.664;-63.766;2023-01-24T00:42:29;30.90;47.00
59975;DHT22;62136;-35.664;-63.766;2023-01-24T00:44:55;30.90;47.10
59975;DHT22;62136;-35.664;-63.766;2023-01-24T00:47:22;30.90;47.10
59975;DHT22;62136;-35.664;-63.766;2023-01-24T00:49:48;30.90;47.10
59975;DHT22;62136;-35.664;-63.766;2023-01-24T00:52:15;30.80;47.20
59975;DHT22;62136;-35.664;-63.766;2023-01-24T00:54:41;30.80;47.20
59975;DHT22;62136;-35.664;-63.766;2023-01-24T00:57:07;30.80;47.30
59975;DHT22;62136;-35.664;-63.766;2023-01-24T00:59:34;30.80;47.30
59975;DHT22;62136;-35.664;-63.766;2023-01-24T01:02:03;30.80;47.30
59975;DHT22;62136;-35.664;-63.766;2023-01-24T01:04:30;30.80;47.40
59975;DHT22;62136;-35.664;-63.766;2023-01-24T01:06:56;30.70;47.50
59975;DHT22;62136;-35.664;-63.766;2023-01-24T01:09:23;30.70;47.60
59975;DHT22;62136;-35.664;-63.766;2023-01-24T01:11:49;30.70;47.60
59975;DHT22;62136;-35.664;-63.766;2023-01-24T01:14:15;30.70;47.80
59975;DHT22;62136;-35.664;-63.766;2023-01-24T01:16:42;30.70;47.70
59975;DHT22;62136;-35.664;-63.766;2023-01-24T01:19:11;30.60;47.60
59975;DHT22;62136;-35.664;-63.766;2023-01-24T01:21:37;30.60;47.50
59975;DHT22;62136;-35.664;-63.766;2023-01-24T01:24:03;30.70;47.60
59975;DHT22;62136;-35.664;-63.766;2023-01-24T01:26:30;30.60;47.50
59975;DHT22;62136;-35.664;-63.766;2023-01-24T01:28:57;30.60;47.60
59975;DHT22;62136;-35.664;-63.766;2023-01-24T01:31:23;30.60;47.60
59975;DHT22;62136;-35.664;-63.766;2023-01-24T01:33:50;30.60;47.50
59975;DHT22;62136;-35.664;-63.766;2023-01-24T01:36:16;30.60;47.50
59975;DHT22;62136;-35.664;-63.766;2023-01-24T01:38:43;30.50;47.50
59975;DHT22;62136;-35.664;-63.766;2023-01-24T01:41:12;30.50;47.40
59975;DHT22;62136;-35.664;-63.766;2023-01-24T01:43:42;30.50;47.50
59975;DHT22;62136;-35.664;-63.766;2023-01-24T01:46:28;30.50;47.40
59975;DHT22;62136;-35.664;-63.766;2023-01-24T01:49:00;30.50;47.40
59975;DHT22;62136;-35.664;-63.766;2023-01-24T01:51:51;30.50;47.40
59975;DHT22;62136;-35.664;-63.766;2023-01-24T01:54:21;30.50;47.40
59975;DHT22;62136;-35.664;-63.766;2023-01-24T01:56:50;30.50;47.40
59975;DHT22;62136;-35.664;-63.766;2023-01-24T01:59:19;30.50;47.50
59975;DHT22;62136;-35.664;-63.766;2023-01-24T02:01:47;30.40;47.50
59975;DHT22;62136;-35.664;-63.766;2023-01-24T02:04:19;30.50;47.50
59975;DHT22;62136;-35.664;-63.766;2023-01-24T02:06:51;30.40;47.50
59975;DHT22;62136;-35.664;-63.766;2023-01-24T02:09:20;30.40;47.50
59975;DHT22;62136;-35.664;-63.766;2023-01-24T02:11:47;30.40;47.50
59975;DHT22;62136;-35.664;-63.766;2023-01-24T02:14:17;30.30;47.50
59975;DHT22;62136;-35.664;-63.766;2023-01-24T02:17:01;30.30;47.50
59975;DHT22;62136;-35.664;-63.766;2023-01-24T02:22:02;30.30;47.50
59975;DHT22;62136;-35.664;-63.766;2023-01-24T02:24:35;30.30;47.50
59975;DHT22;62136;-35.664;-63.766;2023-01-24T02:27:03;30.30;47.50
59975;DHT22;62136;-35.664;-63.766;2023-01-24T02:29:30;30.30;47.50
59975;DHT22;62136;-35.664;-63.766;2023-01-24T02:32:00;30.20;47.50
59975;DHT22;62136;-35.664;-63.766;2023-01-24T02:34:28;30.20;47.50
59975;DHT22;62136;-35.664;-63.766;2023-01-24T02:37:05;30.20;47.60
59975;DHT22;62136;-35.664;-63.766;2023-01-24T02:39:35;30.20;47.60
59975;DHT22;62136;-35.664;-63.766;2023-01-24T02:42:05;30.20;47.70
59975;DHT22;62136;-35.664;-63.766;2023-01-24T02:44:45;30.10;47.50
59975;DHT22;62136;-35.664;-63.766;2023-01-24T02:47:12;30.10;47.60
59975;DHT22;62136;-35.664;-63.766;2023-01-24T02:49:39;30.10;47.60
59975;DHT22;62136;-35.664;-63.766;2023-01-24T02:52:06;30.10;47.60
59975;DHT22;62136;-35.664;-63.766;2023-01-24T02:54:51;30.10;47.60
59975;DHT22;62136;-35.664;-63.766;2023-01-24T02:57:17;30.10;47.70
59975;DHT22;62136;-35.664;-63.766;2023-01-24T03:00:03;30.10;47.70
59975;DHT22;62136;-35.664;-63.766;2023-01-24T03:02:29;30.00;47.70
59975;DHT22;62136;-35.664;-63.766;2023-01-24T03:04:59;30.10;47.70
59975;DHT22;62136;-35.664;-63.766;2023-01-24T03:07:25;30.00;47.70
59975;DHT22;62136;-35.664;-63.766;2023-01-24T03:09:51;30.00;47.70
59975;DHT22;62136;-35.664;-63.766;2023-01-24T03:12:18;30.00;47.80
59975;DHT22;62136;-35.664;-63.766;2023-01-24T03:15:03;30.00;47.70
59975;DHT22;62136;-35.664;-63.766;2023-01-24T03:17:47;30.00;47.70
59975;DHT22;62136;-35.664;-63.766;2023-01-24T03:20:32;29.90;47.70
59975;DHT22;62136;-35.664;-63.766;2023-01-24T03:23:17;29.90;47.80
59975;DHT22;62136;-35.664;-63.766;2023-01-24T03:26:01;29.90;47.80
59975;DHT22;62136;-35.664;-63.766;2023-01-24T03:28:46;29.90;47.90
59975;DHT22;62136;-35.664;-63.766;2023-01-24T03:31:31;29.90;47.90
59975;DHT22;62136;-35.664;-63.766;2023-01-24T03:34:16;29.90;47.90
59975;DHT22;62136;-35.664;-63.766;2023-01-24T03:37:22;29.90;47.90
59975;DHT22;62136;-35.664;-63.766;2023-01-24T03:40:09;29.80;48.30
59975;DHT22;62136;-35.664;-63.766;2023-01-24T03:42:36;29.80;47.90
59975;DHT22;62136;-35.664;-63.766;2023-01-24T03:45:13;29.80;47.90
59975;DHT22;62136;-35.664;-63.766;2023-01-24T03:47:43;29.80;47.90
59975;DHT22;62136;-35.664;-63.766;2023-01-24T03:50:11;29.80;48.00
59975;DHT22;62136;-35.664;-63.766;2023-01-24T03:52:56;29.80;48.00
59975;DHT22;62136;-35.664;-63.766;2023-01-24T03:55:22;29.80;48.00
59975;DHT22;62136;-35.664;-63.766;2023-01-24T03:57:50;29.70;47.90
59975;DHT22;62136;-35.664;-63.766;2023-01-24T04:00:16;29.80;48.00
59975;DHT22;62136;-35.664;-63.766;2023-01-24T04:02:43;29.70;48.00
59975;DHT22;62136;-35.664;-63.766;2023-01-24T04:05:09;29.70;47.90
59975;DHT22;62136;-35.664;-63.766;2023-01-24T04:07:39;29.70;48.00
59975;DHT22;62136;-35.664;-63.766;2023-01-24T04:10:05;29.70;47.90
59975;DHT22;62136;-35.664;-63.766;2023-01-24T04:12:32;29.70;48.00
59975;DHT22;62136;-35.664;-63.766;2023-01-24T04:14:58;29.70;48.00
59975;DHT22;62136;-35.664;-63.766;2023-01-24T04:17:25;29.70;47.90
59975;DHT22;62136;-35.664;-63.766;2023-01-24T04:19:51;29.70;47.90
59975;DHT22;62136;-35.664;-63.766;2023-01-24T04:22:18;29.70;48.00
59975;DHT22;62136;-35.664;-63.766;2023-01-24T04:24:44;29.60;48.00
59975;DHT22;62136;-35.664;-63.766;2023-01-24T04:27:14;29.60;48.00
59975;DHT22;62136;-35.664;-63.766;2023-01-24T04:29:40;29.60;47.90
59975;DHT22;62136;-35.664;-63.766;2023-01-24T04:32:07;29.60;48.00
59975;DHT22;62136;-35.664;-63.766;2023-01-24T04:34:34;29.60;47.90
59975;DHT22;62136;-35.664;-63.766;2023-01-24T04:37:00;29.60;48.00
59975;DHT22;62136;-35.664;-63.766;2023-01-24T04:39:26;29.60;48.00
59975;DHT22;62136;-35.664;-63.766;2023-01-24T04:41:53;29.50;47.90
59975;DHT22;62136;-35.664;-63.766;2023-01-24T04:44:19;29.60;48.10
59975;DHT22;62136;-35.664;-63.766;2023-01-24T04:46:46;29.50;47.90
59975;DHT22;62136;-35.664;-63.766;2023-01-24T04:49:12;29.50;48.00
59975;DHT22;62136;-35.664;-63.766;2023-01-24T04:51:39;29.50;48.00
59975;DHT22;62136;-35.664;-63.766;2023-01-24T04:54:11;29.50;48.00
59975;DHT22;62136;-35.664;-63.766;2023-01-24T04:56:38;29.40;48.40
59975;DHT22;62136;-35.664;-63.766;2023-01-24T04:59:04;29.40;48.00
59975;DHT22;62136;-35.664;-63.766;2023-01-24T05:01:31;29.40;48.00
59975;DHT22;62136;-35.664;-63.766;2023-01-24T05:03:57;29.40;48.00
59975;DHT22;62136;-35.664;-63.766;2023-01-24T05:06:27;29.40;48.10
59975;DHT22;62136;-35.664;-63.766;2023-01-24T05:08:54;29.40;48.00
59975;DHT22;62136;-35.664;-63.766;2023-01-24T05:11:20;29.30;47.90
59975;DHT22;62136;-35.664;-63.766;2023-01-24T05:13:47;29.40;48.10
59975;DHT22;62136;-35.664;-63.766;2023-01-24T05:16:13;29.40;48.00
59975;DHT22;62136;-35.664;-63.766;2023-01-24T05:18:40;29.40;48.10
59975;DHT22;62136;-35.664;-63.766;2023-01-24T05:21:14;29.40;48.60
59975;DHT22;62136;-35.664;-63.766;2023-01-24T05:23:48;29.40;48.10
59975;DHT22;62136;-35.664;-63.766;2023-01-24T05:26:15;29.40;48.10
59975;DHT22;62136;-35.664;-63.766;2023-01-24T05:28:41;29.30;48.10
59975;DHT22;62136;-35.664;-63.766;2023-01-24T05:31:08;29.40;48.30
59975;DHT22;62136;-35.664;-63.766;2023-01-24T05:33:35;29.40;48.40
59975;DHT22;62136;-35.664;-63.766;2023-01-24T05:36:05;29.30;48.30
59975;DHT22;62136;-35.664;-63.766;2023-01-24T05:38:32;29.30;48.40
59975;DHT22;62136;-35.664;-63.766;2023-01-24T05:40:59;29.30;48.50
59975;DHT22;62136;-35.664;-63.766;2023-01-24T05:43:26;29.30;48.60
59975;DHT22;62136;-35.664;-63.766;2023-01-24T05:46:03;29.20;48.70
59975;DHT22;62136;-35.664;-63.766;2023-01-24T05:48:29;29.20;48.80
59975;DHT22;62136;-35.664;-63.766;2023-01-24T05:51:00;29.20;48.80
59975;DHT22;62136;-35.664;-63.766;2023-01-24T05:53:28;29.20;48.90
59975;DHT22;62136;-35.664;-63.766;2023-01-24T05:55:58;29.20;48.90
59975;DHT22;62136;-35.664;-63.766;2023-01-24T05:58:25;29.20;49.00
59975;DHT22;62136;-35.664;-63.766;2023-01-24T06:00:52;29.10;48.90
59975;DHT22;62136;-35.664;-63.766;2023-01-24T06:03:19;29.10;49.00
59975;DHT22;62136;-35.664;-63.766;2023-01-24T06:05:46;29.10;49.10
59975;DHT22;62136;-35.664;-63.766;2023-01-24T06:08:12;29.10;49.20
59975;DHT22;62136;-35.664;-63.766;2023-01-24T06:10:39;29.10;49.20
59975;DHT22;62136;-35.664;-63.766;2023-01-24T06:13:05;29.10;49.20
59975;DHT22;62136;-35.664;-63.766;2023-01-24T06:15:32;29.00;49.20
59975;DHT22;62136;-35.664;-63.766;2023-01-24T06:17:59;29.00;49.30
59975;DHT22;62136;-35.664;-63.766;2023-01-24T06:20:25;29.00;49.40
59975;DHT22;62136;-35.664;-63.766;2023-01-24T06:22:52;29.00;49.40
59975;DHT22;62136;-35.664;-63.766;2023-01-24T06:25:21;29.00;49.40
59975;DHT22;62136;-35.664;-63.766;2023-01-24T06:27:48;29.00;49.50
59975;DHT22;62136;-35.664;-63.766;2023-01-24T06:30:15;29.00;49.40
59975;DHT22;62136;-35.664;-63.766;2023-01-24T06:35:31;29.00;49.70
59975;DHT22;62136;-35.664;-63.766;2023-01-24T06:37:58;28.90;49.70
59975;DHT22;62136;-35.664;-63.766;2023-01-24T06:40:25;28.90;49.70
59975;DHT22;62136;-35.664;-63.766;2023-01-24T06:42:52;28.90;49.60
59975;DHT22;62136;-35.664;-63.766;2023-01-24T06:45:19;28.90;49.70
59975;DHT22;62136;-35.664;-63.766;2023-01-24T06:47:46;28.90;49.80
59975;DHT22;62136;-35.664;-63.766;2023-01-24T06:50:16;28.80;49.90
59975;DHT22;62136;-35.664;-63.766;2023-01-24T06:52:49;28.80;49.80
59975;DHT22;62136;-35.664;-63.766;2023-01-24T06:55:16;28.80;50.00
59975;DHT22;62136;-35.664;-63.766;2023-01-24T06:57:43;28.80;50.00
59975;DHT22;62136;-35.664;-63.766;2023-01-24T07:00:12;28.80;50.10
59975;DHT22;62136;-35.664;-63.766;2023-01-24T07:02:38;28.80;50.10
59975;DHT22;62136;-35.664;-63.766;2023-01-24T07:05:05;28.80;50.20
59975;DHT22;62136;-35.664;-63.766;2023-01-24T07:07:31;28.80;50.10
59975;DHT22;62136;-35.664;-63.766;2023-01-24T07:09:58;28.80;50.20
59975;DHT22;62136;-35.664;-63.766;2023-01-24T07:12:24;28.80;50.30
59975;DHT22;62136;-35.664;-63.766;2023-01-24T07:14:50;28.70;50.30
59975;DHT22;62136;-35.664;-63.766;2023-01-24T07:17:17;28.70;50.40
59975;DHT22;62136;-35.664;-63.766;2023-01-24T07:19:43;28.80;50.40
59975;DHT22;62136;-35.664;-63.766;2023-01-24T07:22:11;28.70;50.50
59975;DHT22;62136;-35.664;-63.766;2023-01-24T07:24:37;28.80;50.60
59975;DHT22;62136;-35.664;-63.766;2023-01-24T07:27:04;28.70;50.60
59975;DHT22;62136;-35.664;-63.766;2023-01-24T07:29:30;28.70;50.70
59975;DHT22;62136;-35.664;-63.766;2023-01-24T07:31:57;28.70;50.80
59975;DHT22;62136;-35.664;-63.766;2023-01-24T07:34:23;28.70;51.00
59975;DHT22;62136;-35.664;-63.766;2023-01-24T07:36:50;28.70;50.90
59975;DHT22;62136;-35.664;-63.766;2023-01-24T07:39:16;28.70;51.00
59975;DHT22;62136;-35.664;-63.766;2023-01-24T07:41:42;28.70;50.90
59975;DHT22;62136;-35.664;-63.766;2023-01-24T07:44:09;28.60;51.10
59975;DHT22;62136;-35.664;-63.766;2023-01-24T07:46:36;28.60;51.20
59975;DHT22;62136;-35.664;-63.766;2023-01-24T07:49:02;28.60;51.20
59975;DHT22;62136;-35.664;-63.766;2023-01-24T07:51:29;28.60;51.30
59975;DHT22;62136;-35.664;-63.766;2023-01-24T07:53:56;28.60;51.40
59975;DHT22;62136;-35.664;-63.766;2023-01-24T07:56:22;28.60;51.50
59975;DHT22;62136;-35.664;-63.766;2023-01-24T07:58:49;28.60;51.40
59975;DHT22;62136;-35.664;-63.766;2023-01-24T08:01:19;28.60;51.50
59975;DHT22;62136;-35.664;-63.766;2023-01-24T08:03:45;28.60;51.50
59975;DHT22;62136;-35.664;-63.766;2023-01-24T08:06:12;28.60;51.80
59975;DHT22;62136;-35.664;-63.766;2023-01-24T08:08:38;28.60;51.80
59975;DHT22;62136;-35.664;-63.766;2023-01-24T08:11:05;28.50;51.90
59975;DHT22;62136;-35.664;-63.766;2023-01-24T08:13:31;28.50;51.90
59975;DHT22;62136;-35.664;-63.766;2023-01-24T08:16:00;28.50;51.90
59975;DHT22;62136;-35.664;-63.766;2023-01-24T08:18:27;28.50;52.10
59975;DHT22;62136;-35.664;-63.766;2023-01-24T08:20:54;28.50;52.10
59975;DHT22;62136;-35.664;-63.766;2023-01-24T08:23:21;28.50;52.20
59975;DHT22;62136;-35.664;-63.766;2023-01-24T08:25:47;28.50;52.20
59975;DHT22;62136;-35.664;-63.766;2023-01-24T08:28:13;28.40;52.40
59975;DHT22;62136;-35.664;-63.766;2023-01-24T08:30:40;28.40;52.30
59975;DHT22;62136;-35.664;-63.766;2023-01-24T08:33:06;28.40;52.50
59975;DHT22;62136;-35.664;-63.766;2023-01-24T08:35:33;28.40;52.40
59975;DHT22;62136;-35.664;-63.766;2023-01-24T08:38:00;28.40;52.50
59975;DHT22;62136;-35.664;-63.766;2023-01-24T08:40:29;28.40;52.50
59975;DHT22;62136;-35.664;-63.766;2023-01-24T08:42:58;28.40;52.70
59975;DHT22;62136;-35.664;-63.766;2023-01-24T08:45:24;28.40;52.80
59975;DHT22;62136;-35.664;-63.766;2023-01-24T08:47:51;28.30;52.80
59975;DHT22;62136;-35.664;-63.766;2023-01-24T08:50:18;28.30;52.90
59975;DHT22;62136;-35.664;-63.766;2023-01-24T08:52:45;28.30;53.00
59975;DHT22;62136;-35.664;-63.766;2023-01-24T08:55:12;28.30;53.00
59975;DHT22;62136;-35.664;-63.766;2023-01-24T08:57:38;28.30;52.80
59975;DHT22;62136;-35.664;-63.766;2023-01-24T09:00:05;28.20;53.00
59975;DHT22;62136;-35.664;-63.766;2023-01-24T09:02:32;28.30;53.20
59975;DHT22;62136;-35.664;-63.766;2023-01-24T09:05:00;28.30;53.20
59975;DHT22;62136;-35.664;-63.766;2023-01-24T09:07:26;28.20;53.20
59975;DHT22;62136;-35.664;-63.766;2023-01-24T09:09:53;28.20;53.30
59975;DHT22;62136;-35.664;-63.766;2023-01-24T09:12:19;28.20;53.50
59975;DHT22;62136;-35.664;-63.766;2023-01-24T09:14:46;28.20;53.50
59975;DHT22;62136;-35.664;-63.766;2023-01-24T09:17:12;28.20;53.70
59975;DHT22;62136;-35.664;-63.766;2023-01-24T09:19:41;28.20;53.90
59975;DHT22;62136;-35.664;-63.766;2023-01-24T09:22:08;28.10;53.80
